Time;durP1;ratioP1;P1;durP2;ratioP2;P2;SDS_P1;SDS_P2;PMS_P1;PMS_P2;Temp;Humidity;BMP_temperature;BMP_pressure;BME280_temperature;BME280_humidity;BME280_pressure;Samples;Min_cycle;Max_cycle;Signal;HPM_P1;HPM_P2
2023/06/21 00:00:15;;;;;;;10.85;9.82;;;;;;;17.97;87.87;95265.09;5007375;28;20424;-62
2023/06/21 00:02:43;;;;;;;9.73;8.73;;;;;;;17.98;87.71;95266.75;5005636;28;20231;-62
2023/06/21 00:05:10;;;;;;;15.35;9.18;;;;;;;17.95;87.56;95267.78;5008784;28;20215;-62
2023/06/21 00:07:38;;;;;;;12.05;10.13;;;;;;;17.94;87.50;95260.16;5007665;28;20214;-62
2023/06/21 00:10:07;;;;;;;9.65;8.75;;;;;;;17.90;87.38;95266.38;5005828;28;20209;-63
2023/06/21 00:12:35;;;;;;;12.13;9.88;;;;;;;17.85;87.75;95260.69;5006839;28;20259;-62
2023/06/21 00:15:02;;;;;;;10.75;9.20;;;;;;;17.84;87.64;95259.03;5005542;28;20327;-62
2023/06/21 00:17:28;;;;;;;10.70;9.80;;;;;;;17.84;87.54;95269.31;5007847;28;20199;-61
2023/06/21 00:19:56;;;;;;;11.60;9.15;;;;;;;17.79;87.82;95271.34;5006836;28;20223;-63
2023/06/21 00:22:23;;;;;;;13.25;9.27;;;;;;;17.74;88.10;95266.47;5008279;28;20215;-62
2023/06/21 00:24:50;;;;;;;11.30;9.18;;;;;;;17.79;87.64;95263.63;5005998;28;20467;-62
2023/06/21 00:27:17;;;;;;;10.55;9.50;;;;;;;17.82;87.78;95263.41;5008731;28;20238;-62
2023/06/21 00:29:45;;;;;;;11.68;9.70;;;;;;;17.81;87.98;95256.66;5007356;28;20649;-62
2023/06/21 00:32:12;;;;;;;11.43;9.63;;;;;;;17.81;88.30;95254.09;5006718;28;20292;-64
2023/06/21 00:34:39;;;;;;;10.90;9.75;;;;;;;17.81;88.23;95251.50;5006097;28;20750;-61
2023/06/21 00:37:06;;;;;;;11.10;10.00;;;;;;;17.75;88.72;95251.88;5006524;28;20330;-63
2023/06/21 00:39:33;;;;;;;10.02;9.13;;;;;;;17.77;88.74;95257.75;5007881;28;20234;-63
2023/06/21 00:42:00;;;;;;;10.32;9.43;;;;;;;17.75;88.59;95255.25;5006869;28;20296;-62
2023/06/21 00:44:26;;;;;;;10.00;9.05;;;;;;;17.68;88.83;95256.53;5006654;28;20199;-62
2023/06/21 00:46:54;;;;;;;10.50;9.50;;;;;;;17.69;88.71;95271.03;5007278;28;20265;-61
2023/06/21 00:49:22;;;;;;;10.25;9.27;;;;;;;17.69;88.25;95253.03;5006903;28;20199;-64
2023/06/21 00:51:49;;;;;;;10.13;9.23;;;;;;;17.68;88.29;95259.09;5006898;28;20917;-62
2023/06/21 00:54:17;;;;;;;10.10;9.05;;;;;;;17.61;89.19;95266.31;5005593;28;21857;-63
2023/06/21 00:56:44;;;;;;;10.32;9.32;;;;;;;17.65;88.86;95266.97;5007910;28;20321;-63
2023/06/21 00:59:11;;;;;;;10.95;8.57;;;;;;;17.57;89.08;95262.25;5008049;28;20337;-62
2023/06/21 01:01:38;;;;;;;10.75;9.82;;;;;;;17.53;89.08;95268.50;5007195;28;20230;-63
2023/06/21 01:04:08;;;;;;;11.35;9.95;;;;;;;17.54;88.56;95262.44;5006222;28;20286;-62
2023/06/21 01:06:42;;;;;;;12.15;9.77;;;;;;;17.52;89.23;95258.31;5005742;28;20290;-64
2023/06/21 01:09:21;;;;;;;9.93;8.38;;;;;;;17.49;89.64;95254.16;5005731;28;20611;-63
2023/06/21 01:11:53;;;;;;;10.20;9.23;;;;;;;17.52;89.39;95254.00;5007910;28;20214;-63
2023/06/21 01:14:28;;;;;;;14.90;13.48;;;;;;;17.52;89.46;95261.72;5010510;28;20380;-62
2023/06/21 01:16:57;;;;;;;16.92;15.23;;;;;;;17.47;89.23;95261.13;5013516;28;20206;-63
2023/06/21 01:19:41;;;;;;;15.55;14.15;;;;;;;17.43;89.35;95257.09;5013995;28;20341;-63
2023/06/21 01:22:18;;;;;;;14.50;13.18;;;;;;;17.48;89.33;95261.97;5013442;28;20211;-63
2023/06/21 01:24:57;;;;;;;17.52;13.05;;;;;;;17.50;89.03;95255.81;5011688;28;20309;-63
2023/06/21 01:27:36;;;;;;;15.15;13.57;;;;;;;17.43;89.26;95251.94;5012842;28;20324;-62
2023/06/21 01:30:09;;;;;;;14.73;13.48;;;;;;;17.41;89.11;95251.22;5013113;28;20276;-63
2023/06/21 01:32:37;;;;;;;15.35;14.00;;;;;;;17.28;89.75;95263.09;5014384;28;20392;-61
2023/06/21 01:35:05;;;;;;;14.73;13.23;;;;;;;17.34;89.49;95265.31;5012499;28;21490;-62
2023/06/21 01:37:32;;;;;;;17.00;13.85;;;;;;;17.31;89.55;95266.34;5013283;28;20903;-63
2023/06/21 01:40:00;;;;;;;18.00;13.30;;;;;;;17.26;89.94;95264.94;5012775;28;20289;-62
2023/06/21 01:42:26;;;;;;;15.20;13.82;;;;;;;17.34;89.30;95273.00;5012408;28;20510;-62
2023/06/21 01:44:53;;;;;;;14.38;13.10;;;;;;;17.34;89.36;95271.28;5011559;28;21552;-63
2023/06/21 01:47:22;;;;;;;13.68;12.45;;;;;;;17.42;89.12;95277.72;5012968;28;20757;-62
2023/06/21 01:49:49;;;;;;;15.63;13.55;;;;;;;17.46;89.18;95274.91;5012129;28;20222;-62
2023/06/21 01:52:16;;;;;;;13.38;12.07;;;;;;;17.43;89.27;95280.22;5010839;28;20250;-61
2023/06/21 01:54:43;;;;;;;14.07;12.55;;;;;;;17.50;89.24;95283.25;5009963;28;20226;-62
2023/06/21 01:57:11;;;;;;;15.35;13.82;;;;;;;17.48;89.00;95283.34;5012776;28;20207;-62
2023/06/21 01:59:38;;;;;;;15.32;13.88;;;;;;;17.49;88.95;95279.88;5013352;28;20215;-63
2023/06/21 02:02:06;;;;;;;18.88;14.13;;;;;;;17.48;88.83;95279.97;5013709;28;20982;-62
2023/06/21 02:04:35;;;;;;;15.00;13.55;;;;;;;17.47;88.81;95270.59;5011938;28;20589;-63
2023/06/21 02:07:04;;;;;;;14.02;12.75;;;;;;;17.39;89.19;95272.75;5013461;28;21854;-63
2023/06/21 02:09:32;;;;;;;13.88;12.68;;;;;;;17.26;90.03;95268.34;5013793;28;20296;-62
2023/06/21 02:12:00;;;;;;;18.60;13.63;;;;;;;17.26;90.09;95264.94;5013652;28;20592;-62
2023/06/21 02:14:27;;;;;;;14.68;13.30;;;;;;;17.24;90.13;95271.91;5013186;28;20229;-62
2023/06/21 02:16:54;;;;;;;14.05;12.60;;;;;;;17.17;90.61;95271.41;5013201;28;20211;-62
2023/06/21 02:19:22;;;;;;;17.83;12.32;;;;;;;17.03;91.48;95275.66;5013836;28;20280;-62
2023/06/21 02:21:50;;;;;;;13.30;12.10;;;;;;;17.06;91.48;95270.38;5012861;28;20223;-63
2023/06/21 02:24:17;;;;;;;12.65;11.45;;;;;;;17.11;91.32;95276.03;5012493;28;20291;-63
2023/06/21 02:26:44;;;;;;;13.38;11.63;;;;;;;17.05;91.67;95276.41;5013348;28;21530;-63
2023/06/21 02:29:11;;;;;;;12.43;11.18;;;;;;;17.11;91.50;95279.44;5014062;28;20701;-62
2023/06/21 02:31:38;;;;;;;14.18;12.48;;;;;;;17.10;91.06;95282.09;5017970;28;20663;-62
2023/06/21 02:34:05;;;;;;;14.00;12.70;;;;;;;17.06;90.98;95285.78;5016647;28;20223;-62
2023/06/21 02:36:32;;;;;;;13.15;11.88;;;;;;;17.03;91.19;95296.22;5015945;28;20211;-63
2023/06/21 02:39:00;;;;;;;15.00;12.38;;;;;;;16.99;91.00;95292.97;5016907;28;20205;-63
2023/06/21 02:41:26;;;;;;;14.35;12.57;;;;;;;17.04;90.74;95297.88;5017402;28;20693;-62
2023/06/21 02:43:53;;;;;;;17.90;12.48;;;;;;;17.07;90.46;95303.66;5015670;28;20743;-63
2023/06/21 02:46:20;;;;;;;12.95;11.68;;;;;;;17.10;90.27;95302.63;5017178;28;20211;-62
2023/06/21 02:48:47;;;;;;;12.15;11.05;;;;;;;16.94;91.41;95305.22;5016374;28;20207;-63
2023/06/21 02:51:14;;;;;;;16.17;11.38;;;;;;;16.97;91.40;95308.47;5016743;28;21324;-63
2023/06/21 02:53:40;;;;;;;15.43;12.02;;;;;;;16.96;91.34;95308.53;5019271;28;20214;-63
2023/06/21 02:56:08;;;;;;;13.05;11.82;;;;;;;17.06;91.08;95316.59;5017830;28;20211;-63
2023/06/21 02:58:35;;;;;;;12.82;11.50;;;;;;;17.09;90.71;95321.53;5014372;28;20384;-62
2023/06/21 03:01:02;;;;;;;12.95;11.68;;;;;;;17.06;90.70;95317.41;5018997;28;20195;-62
2023/06/21 03:03:29;;;;;;;15.25;11.23;;;;;;;17.05;90.58;95313.19;5018820;28;20704;-63
2023/06/21 03:05:56;;;;;;;11.95;10.15;;;;;;;17.10;90.62;95312.91;5017568;28;20307;-63
2023/06/21 03:08:22;;;;;;;12.93;11.07;;;;;;;17.09;90.40;95321.53;5017766;28;20700;-61
2023/06/21 03:10:49;;;;;;;11.32;10.20;;;;;;;17.00;90.85;95318.56;5017184;28;20235;-61
2023/06/21 03:13:17;;;;;;;16.88;11.43;;;;;;;16.82;91.00;95299.03;5018129;28;20214;-60
2023/06/21 03:15:44;;;;;;;12.30;10.93;;;;;;;17.01;90.37;95321.97;5017284;28;20345;-61
2023/06/21 03:18:11;;;;;;;13.75;11.88;;;;;;;17.04;90.12;95331.25;5020297;28;20199;-61
2023/06/21 03:20:38;;;;;;;12.32;11.00;;;;;;;17.13;90.05;95323.00;5016701;28;20195;-61
2023/06/21 03:23:04;;;;;;;14.45;11.35;;;;;;;17.25;89.49;95332.63;5018651;28;20286;-63
2023/06/21 03:25:31;;;;;;;11.68;10.60;;;;;;;17.34;89.15;95321.81;5015914;28;20689;-65
2023/06/21 03:27:59;;;;;;;15.43;11.20;;;;;;;17.49;88.33;95327.84;5018795;28;20341;-61
2023/06/21 03:30:27;;;;;;;14.30;12.55;;;;;;;17.61;88.13;95325.41;5017137;28;20229;-61
2023/06/21 03:32:54;;;;;;;13.52;11.00;;;;;;;18.12;86.99;95325.91;5018678;28;20273;-64
2023/06/21 03:35:20;;;;;;;12.35;11.25;;;;;;;19.17;82.86;95322.06;5018256;28;20215;-61
2023/06/21 03:37:47;;;;;;;12.23;9.70;;;;;;;20.63;75.80;95327.91;5017935;28;20207;-61
2023/06/21 03:40:14;;;;;;;13.93;10.05;;;;;;;22.10;69.17;95315.63;5016189;28;20290;-61
2023/06/21 03:42:42;;;;;;;13.85;10.85;;;;;;;23.40;64.29;95335.75;5017647;28;20223;-62
2023/06/21 03:45:11;;;;;;;10.98;10.02;;;;;;;24.52;59.91;95324.00;5016197;28;20294;-62
2023/06/21 03:47:40;;;;;;;11.38;9.30;;;;;;;25.44;57.10;95328.16;5016094;28;20598;-63
2023/06/21 03:50:07;;;;;;;13.40;9.35;;;;;;;26.05;55.57;95320.06;5015128;28;20214;-65
2023/06/21 03:52:34;;;;;;;11.00;9.68;;;;;;;26.41;54.37;95324.56;5016208;28;20314;-62
2023/06/21 03:55:02;;;;;;;12.00;8.40;;;;;;;26.12;54.70;95326.38;5015023;28;20227;-62
2023/06/21 03:57:28;;;;;;;11.05;9.77;;;;;;;25.30;56.57;95326.75;5017304;28;20214;-62
2023/06/21 03:59:55;;;;;;;10.23;8.98;;;;;;;24.39;59.43;95325.03;5015417;28;20231;-63
2023/06/21 04:02:22;;;;;;;20.42;10.38;;;;;;;23.82;61.41;95332.41;5016449;28;20505;-61
2023/06/21 04:04:50;;;;;;;29.80;20.30;;;;;;;23.51;62.48;95337.44;5016485;28;20285;-61
2023/06/21 04:07:19;;;;;;;39.67;28.85;;;;;;;23.19;63.89;95336.63;5017444;28;20281;-63
2023/06/21 04:09:46;;;;;;;15.02;13.60;;;;;;;23.01;64.92;95337.09;5015745;28;20203;-61
2023/06/21 04:12:12;;;;;;;17.90;10.85;;;;;;;22.92;65.06;95343.03;5017649;28;20671;-63
2023/06/21 04:14:40;;;;;;;10.45;9.23;;;;;;;22.94;64.96;95338.53;5017457;28;20444;-64
2023/06/21 04:17:07;;;;;;;15.88;9.52;;;;;;;22.87;65.29;95350.31;5019390;28;21015;-63
2023/06/21 04:19:34;;;;;;;14.88;11.15;;;;;;;22.92;65.47;95342.19;5017103;28;20239;-63
2023/06/21 04:22:02;;;;;;;11.55;10.32;;;;;;;22.97;65.28;95343.50;5014917;28;20685;-61
2023/06/21 04:24:28;;;;;;;12.15;9.93;;;;;;;23.15;64.79;95337.81;5016358;28;20202;-63
2023/06/21 04:26:58;;;;;;;13.02;10.38;;;;;;;23.38;63.78;95349.78;5017151;28;20273;-62
2023/06/21 04:29:25;;;;;;;21.70;10.85;;;;;;;23.64;63.16;95348.53;5015872;28;20211;-63
2023/06/21 04:31:53;;;;;;;34.65;22.17;;;;;;;23.99;61.50;95357.84;5014644;28;20203;-63
2023/06/21 04:34:19;;;;;;;26.27;19.92;;;;;;;24.43;60.24;95349.00;5017803;28;20222;-63
2023/06/21 04:36:48;;;;;;;35.17;29.70;;;;;;;25.01;58.58;95346.66;5016585;28;20264;-65
2023/06/21 04:39:17;;;;;;;23.67;19.45;;;;;;;25.51;56.80;95352.66;5016745;28;21776;-63
2023/06/21 04:41:46;;;;;;;19.58;13.23;;;;;;;25.98;55.04;95351.09;5015690;28;20280;-62
2023/06/21 04:44:13;;;;;;;19.48;11.02;;;;;;;26.49;54.21;95355.13;5017029;28;20203;-64
2023/06/21 04:46:40;;;;;;;12.30;10.00;;;;;;;27.02;52.45;95355.38;5016275;28;20628;-64
2023/06/21 04:49:07;;;;;;;9.43;8.70;;;;;;;27.45;51.14;95348.69;5017349;28;20234;-64
2023/06/21 04:51:34;;;;;;;10.30;9.50;;;;;;;27.91;49.76;95352.94;5015483;28;20281;-61
2023/06/21 04:54:00;;;;;;;9.88;9.18;;;;;;;28.16;48.61;95353.94;5015875;28;20253;-64
2023/06/21 04:56:29;;;;;;;9.90;9.10;;;;;;;28.36;48.42;95339.75;5016579;28;20223;-64
2023/06/21 04:58:56;;;;;;;10.60;8.88;;;;;;;28.51;48.02;95342.59;5017338;28;20210;-64
2023/06/21 05:01:23;;;;;;;12.27;8.98;;;;;;;28.67;47.40;95354.97;5014845;28;20288;-64
2023/06/21 05:03:52;;;;;;;14.05;10.30;;;;;;;28.81;47.53;95351.81;5016708;28;20207;-64
2023/06/21 05:06:20;;;;;;;9.38;8.68;;;;;;;29.16;46.46;95350.81;5016499;28;20205;-66
2023/06/21 05:08:46;;;;;;;11.02;9.82;;;;;;;29.55;45.32;95353.75;5017525;28;20401;-64
2023/06/21 05:11:13;;;;;;;9.77;8.73;;;;;;;29.89;44.43;95342.34;5014466;28;20676;-65
2023/06/21 05:13:41;;;;;;;11.57;9.30;;;;;;;29.83;45.02;95345.59;5015760;28;20296;-64
2023/06/21 05:16:08;;;;;;;11.13;9.93;;;;;;;29.31;45.73;95345.78;5016254;28;20237;-64
2023/06/21 05:18:35;;;;;;;9.27;8.55;;;;;;;28.89;46.53;95346.63;5016459;28;20841;-64
2023/06/21 05:21:02;;;;;;;9.88;8.75;;;;;;;28.41;47.45;95341.91;5015923;28;20218;-65
2023/06/21 05:23:28;;;;;;;10.80;9.38;;;;;;;27.67;48.70;95342.25;5015611;28;20294;-64
2023/06/21 05:25:55;;;;;;;13.20;8.68;;;;;;;27.05;50.54;95349.06;5013584;28;21420;-64
2023/06/21 05:28:22;;;;;;;13.10;8.65;;;;;;;26.74;51.30;95351.06;5016046;28;20230;-64
2023/06/21 05:30:50;;;;;;;8.98;8.38;;;;;;;26.40;52.45;95343.78;5012775;28;20207;-64
2023/06/21 05:33:16;;;;;;;11.25;9.13;;;;;;;26.07;53.40;95346.81;5014409;28;20325;-62
2023/06/21 05:35:43;;;;;;;10.63;9.48;;;;;;;25.99;54.05;95351.88;5016666;28;20600;-63
2023/06/21 05:38:10;;;;;;;9.77;8.80;;;;;;;26.02;54.68;95349.81;5015387;28;20304;-64
2023/06/21 05:40:36;;;;;;;9.93;9.05;;;;;;;25.97;54.69;95348.63;5013007;28;20298;-63
2023/06/21 05:43:05;;;;;;;9.98;9.07;;;;;;;26.35;53.45;95343.38;5015299;28;20203;-62
2023/06/21 05:45:32;;;;;;;11.45;9.15;;;;;;;26.83;52.28;95337.19;5014058;28;20689;-63
2023/06/21 05:48:01;;;;;;;10.02;8.93;;;;;;;27.41;50.94;95336.91;5015784;28;20277;-62
2023/06/21 05:50:30;;;;;;;9.82;8.93;;;;;;;28.58;48.54;95340.19;5014613;28;20215;-63
2023/06/21 05:52:56;;;;;;;9.65;8.82;;;;;;;30.12;44.58;95332.88;5014222;28;20201;-63
2023/06/21 05:55:23;;;;;;;10.57;8.80;;;;;;;31.00;43.10;95331.06;5014421;28;20313;-64
2023/06/21 05:57:50;;;;;;;9.88;8.88;;;;;;;31.20;42.71;95334.13;5014836;28;20233;-64
2023/06/21 06:00:18;;;;;;;12.65;8.45;;;;;;;31.60;41.17;95333.09;5012729;28;20302;-64
2023/06/21 06:02:46;;;;;;;10.32;9.30;;;;;;;31.78;40.74;95331.03;5014787;28;20264;-63
2023/06/21 06:05:15;;;;;;;10.50;9.23;;;;;;;31.89;40.77;95329.81;5018840;28;20333;-64
2023/06/21 06:07:41;;;;;;;10.25;9.30;;;;;;;31.62;41.46;95320.63;5019759;28;20218;-64
2023/06/21 06:10:09;;;;;;;9.65;8.52;;;;;;;31.77;41.11;95324.13;5019041;28;20215;-65
2023/06/21 06:12:36;;;;;;;9.43;8.52;;;;;;;32.40;39.37;95317.75;5018866;28;20309;-64
2023/06/21 06:15:02;;;;;;;15.13;9.68;;;;;;;32.87;38.68;95316.63;5019107;28;20230;-64
2023/06/21 06:17:30;;;;;;;11.20;8.18;;;;;;;35.03;35.18;95313.63;5019646;28;20823;-64
2023/06/21 06:19:56;;;;;;;14.35;9.30;;;;;;;38.12;30.17;95302.94;5019135;28;20211;-65
2023/06/21 06:22:24;;;;;;;9.90;9.13;;;;;;;40.76;26.58;95299.66;5017013;28;20273;-64
2023/06/21 06:24:51;;;;;;;10.68;8.98;;;;;;;43.02;23.63;95303.19;5019152;28;21700;-64
2023/06/21 06:27:18;;;;;;;10.40;9.68;;;;;;;44.92;21.19;95299.41;5017988;28;21542;-63
2023/06/21 06:29:44;;;;;;;10.13;7.80;;;;;;;46.37;19.65;95310.84;5018962;28;20358;-64
2023/06/21 06:32:11;;;;;;;8.73;8.05;;;;;;;46.95;18.93;95300.53;5018253;28;20257;-64
2023/06/21 06:34:38;;;;;;;9.48;8.95;;;;;;;46.69;18.24;95302.50;5019499;28;20702;-64
2023/06/21 06:37:04;;;;;;;8.73;8.15;;;;;;;47.07;18.78;95298.38;5018378;28;20412;-63
2023/06/21 06:39:32;;;;;;;10.48;8.35;;;;;;;47.83;17.88;95277.56;5018695;28;20207;-64
2023/06/21 06:41:59;;;;;;;8.38;7.90;;;;;;;48.37;17.23;95299.78;5017571;28;20293;-64
2023/06/21 06:44:26;;;;;;;9.57;8.73;;;;;;;49.20;16.80;95297.94;5019227;28;20206;-65
2023/06/21 06:46:52;;;;;;;9.55;8.70;;;;;;;49.68;16.42;95295.97;5016877;28;20190;-64
2023/06/21 06:49:19;;;;;;;8.68;7.85;;;;;;;49.48;16.55;95290.81;5019612;28;20295;-65
2023/06/21 06:51:46;;;;;;;8.77;8.18;;;;;;;49.83;16.09;95293.03;5018213;28;20789;-64
2023/06/21 06:54:12;;;;;;;8.55;7.88;;;;;;;50.32;15.70;95294.44;5018103;28;20297;-64
2023/06/21 06:56:40;;;;;;;10.45;7.85;;;;;;;50.62;16.02;95290.44;5016732;28;20783;-64
2023/06/21 06:59:07;;;;;;;9.77;9.07;;;;;;;50.13;15.61;95291.78;5018492;28;21176;-64
2023/06/21 07:01:34;;;;;;;10.52;9.82;;;;;;;49.28;16.63;95289.97;5017457;28;20210;-64
2023/06/21 07:04:01;;;;;;;9.32;8.70;;;;;;;48.50;17.05;95286.78;5018255;28;20294;-65
2023/06/21 07:06:28;;;;;;;8.95;8.15;;;;;;;48.81;16.82;95290.75;5017346;28;20206;-66
2023/06/21 07:08:55;;;;;;;9.38;8.70;;;;;;;49.46;16.65;95290.31;5018861;28;20343;-64
2023/06/21 07:11:22;;;;;;;9.98;9.18;;;;;;;50.02;16.14;95284.91;5017300;28;20206;-64
2023/06/21 07:13:50;;;;;;;12.00;9.45;;;;;;;49.58;16.56;95286.09;5017174;28;22498;-64
2023/06/21 07:16:16;;;;;;;10.85;9.80;;;;;;;49.01;16.50;95287.84;5017690;28;20226;-64
2023/06/21 07:18:43;;;;;;;9.63;8.93;;;;;;;47.86;17.49;95283.19;5017012;28;20710;-65
2023/06/21 07:21:10;;;;;;;10.70;9.93;;;;;;;48.49;16.93;95274.34;5018204;28;20294;-64
2023/06/21 07:23:37;;;;;;;9.75;8.93;;;;;;;48.03;18.05;95277.41;5017574;28;20207;-64
2023/06/21 07:26:03;;;;;;;9.63;8.70;;;;;;;47.74;17.95;95264.69;5016864;28;20235;-65
2023/06/21 07:28:30;;;;;;;10.25;9.23;;;;;;;47.84;18.09;95263.81;5017370;28;20229;-65
2023/06/21 07:30:59;;;;;;;9.68;8.95;;;;;;;48.86;17.19;95265.63;5016704;28;20211;-64
2023/06/21 07:33:26;;;;;;;10.07;9.20;;;;;;;48.90;17.60;95264.78;5017708;28;20222;-65
2023/06/21 07:35:53;;;;;;;11.00;10.15;;;;;;;49.39;16.28;95275.25;5016826;28;20625;-65
2023/06/21 07:38:19;;;;;;;13.73;10.10;;;;;;;49.67;16.23;95267.34;5016699;28;20542;-64
2023/06/21 07:40:46;;;;;;;11.05;9.75;;;;;;;49.66;16.18;95268.44;5016039;28;20719;-65
2023/06/21 07:43:13;;;;;;;12.85;10.20;;;;;;;49.63;16.41;95266.31;5018716;28;20317;-65
2023/06/21 07:45:40;;;;;;;9.70;8.77;;;;;;;50.13;16.01;95275.53;5017676;28;20855;-65
2023/06/21 07:48:09;;;;;;;10.95;9.85;;;;;;;50.27;16.38;95267.50;5017007;28;20648;-64
2023/06/21 07:50:35;;;;;;;11.30;10.00;;;;;;;50.18;16.37;95270.06;5016809;28;20215;-65
2023/06/21 07:53:03;;;;;;;12.80;11.13;;;;;;;50.20;16.18;95264.34;5017007;28;20330;-62
2023/06/21 07:55:29;;;;;;;9.52;8.65;;;;;;;50.38;15.85;95269.72;5016884;28;20238;-66
2023/06/21 07:57:56;;;;;;;9.75;9.13;;;;;;;50.37;15.78;95259.22;5016796;28;20256;-63
2023/06/21 08:00:23;;;;;;;9.52;8.65;;;;;;;50.93;15.82;95261.72;5018266;28;20345;-65
2023/06/21 08:02:52;;;;;;;35.47;31.85;;;;;;;50.93;15.18;95264.44;5013544;28;21270;-64
2023/06/21 08:05:20;;;;;;;26.08;23.65;;;;;;;50.14;15.67;95260.13;5014818;28;21466;-64
2023/06/21 08:07:47;;;;;;;17.40;15.70;;;;;;;49.69;16.00;95260.53;5017141;28;20209;-65
2023/06/21 08:10:14;;;;;;;14.63;13.35;;;;;;;50.13;16.50;95259.31;5015156;28;20703;-68
2023/06/21 08:12:41;;;;;;;9.23;8.57;;;;;;;50.93;15.81;95252.81;5015964;28;20340;-68
2023/06/21 08:15:08;;;;;;;10.68;9.50;;;;;;;52.01;15.30;95250.97;5013725;28;20305;-64
2023/06/21 08:17:35;;;;;;;20.00;18.20;;;;;;;51.66;14.57;95246.41;5017276;28;20226;-65
2023/06/21 08:20:03;;;;;;;18.05;16.45;;;;;;;50.84;15.17;95252.66;5015004;28;20214;-64
2023/06/21 08:22:31;;;;;;;13.05;11.82;;;;;;;51.12;15.31;95247.25;5016553;28;20715;-65
2023/06/21 08:24:57;;;;;;;13.80;12.65;;;;;;;51.73;15.44;95249.47;5031335;28;20591;-65
2023/06/21 08:27:24;;;;;;;16.10;13.55;;;;;;;51.53;15.00;95250.72;5048120;28;20680;-65
2023/06/21 08:29:51;;;;;;;14.30;12.35;;;;;;;51.48;14.93;95252.75;5049578;28;20198;-63
2023/06/21 08:32:19;;;;;;;13.85;12.70;;;;;;;51.08;14.83;95251.69;5049571;28;20230;-63
2023/06/21 08:34:46;;;;;;;12.68;11.70;;;;;;;50.86;15.22;95250.47;5049158;28;20229;-63
2023/06/21 08:37:13;;;;;;;9.77;9.20;;;;;;;49.90;16.40;95254.84;5048233;28;20222;-64
2023/06/21 08:39:41;;;;;;;11.18;9.75;;;;;;;49.53;16.41;95234.00;5048455;28;20203;-64
2023/06/21 08:42:08;;;;;;;10.63;9.35;;;;;;;50.05;16.17;95254.59;5047461;28;20565;-64
2023/06/21 08:44:35;;;;;;;10.48;9.68;;;;;;;50.16;16.26;95247.13;5047568;28;20229;-64
2023/06/21 08:47:05;;;;;;;11.77;10.88;;;;;;;49.82;16.18;95247.38;5047939;28;20284;-63
2023/06/21 08:49:36;;;;;;;11.90;10.93;;;;;;;50.00;16.03;95239.25;5048277;28;20199;-64
2023/06/21 08:52:06;;;;;;;8.70;7.97;;;;;;;50.29;15.54;95243.66;5050201;28;20604;-64
2023/06/21 08:54:35;;;;;;;9.27;8.32;;;;;;;50.10;15.95;95242.88;5050336;28;20206;-63
2023/06/21 08:57:07;;;;;;;9.93;9.20;;;;;;;49.64;16.28;95240.91;5050186;28;20226;-63
2023/06/21 08:59:39;;;;;;;9.98;8.98;;;;;;;49.59;16.33;95235.56;5048948;28;20202;-64
2023/06/21 09:02:27;;;;;;;8.23;7.82;;;;;;;49.53;16.11;95232.09;5050664;28;20213;-64
2023/06/21 09:04:57;;;;;;;10.68;9.55;;;;;;;48.95;17.12;95228.84;5049168;28;20301;-63
2023/06/21 09:07:24;;;;;;;10.10;9.32;;;;;;;48.22;17.23;95220.97;5050360;28;20237;-63
2023/06/21 09:09:53;;;;;;;9.63;8.93;;;;;;;47.72;17.27;95229.13;5049959;28;20236;-65
2023/06/21 09:12:21;;;;;;;9.85;9.23;;;;;;;48.31;17.01;95235.41;5050269;28;20198;-64
2023/06/21 09:14:49;;;;;;;10.60;8.40;;;;;;;48.07;17.15;95230.75;5049935;28;20639;-64
2023/06/21 09:17:15;;;;;;;9.32;8.70;;;;;;;47.37;17.46;95222.06;5049734;28;20218;-65
2023/06/21 09:19:43;;;;;;;9.15;8.48;;;;;;;46.90;17.76;95227.91;5050049;28;20645;-63
2023/06/21 09:22:13;;;;;;;8.82;8.23;;;;;;;46.39;18.82;95233.41;5049383;28;20202;-65
2023/06/21 09:24:39;;;;;;;9.07;8.45;;;;;;;45.85;18.80;95227.75;5048655;28;20225;-66
2023/06/21 09:27:06;;;;;;;8.32;7.75;;;;;;;45.00;19.61;95215.75;5052622;28;20707;-61
2023/06/21 09:29:35;;;;;;;9.43;8.63;;;;;;;43.75;20.79;95226.16;5052687;28;20257;-64
2023/06/21 09:32:02;;;;;;;9.07;8.40;;;;;;;43.03;21.35;95229.94;5051266;28;20763;-62
2023/06/21 09:34:29;;;;;;;7.80;7.35;;;;;;;42.26;21.75;95227.25;5050693;28;20211;-63
2023/06/21 09:36:55;;;;;;;8.65;7.97;;;;;;;41.89;22.49;95226.91;5049442;28;20315;-63
2023/06/21 09:39:23;;;;;;;9.40;8.55;;;;;;;40.88;22.81;95233.00;5050031;28;20260;-64
2023/06/21 09:41:50;;;;;;;9.43;8.73;;;;;;;39.87;24.58;95226.13;5049873;28;20226;-62
2023/06/21 09:44:20;;;;;;;10.73;9.77;;;;;;;38.79;25.43;95229.63;5048613;28;20225;-63
2023/06/21 09:46:49;;;;;;;10.50;9.52;;;;;;;37.30;27.64;95230.41;5052013;28;20289;-61
2023/06/21 09:49:16;;;;;;;10.10;9.23;;;;;;;36.25;28.75;95228.88;5052231;28;20226;-61
2023/06/21 09:51:43;;;;;;;9.45;8.63;;;;;;;35.39;30.06;95222.69;5057516;28;20665;-63
2023/06/21 09:54:10;;;;;;;8.38;7.80;;;;;;;34.74;30.15;95226.69;5057061;28;20209;-63
2023/06/21 09:56:38;;;;;;;7.70;7.30;;;;;;;34.10;29.93;95227.75;5053387;28;20305;-63
2023/06/21 09:59:13;;;;;;;8.48;7.90;;;;;;;33.37;32.10;95228.91;5055091;28;20234;-64
2023/06/21 10:01:44;;;;;;;8.60;7.95;;;;;;;32.16;34.41;95236.41;5049254;28;20235;-63
2023/06/21 10:04:14;;;;;;;8.13;7.45;;;;;;;31.46;33.93;95234.00;5049505;28;20276;-63
2023/06/21 10:06:48;;;;;;;8.32;7.72;;;;;;;31.44;34.10;95244.69;5049800;28;20199;-63
2023/06/21 10:09:14;;;;;;;7.00;6.47;;;;;;;31.33;34.42;95231.16;5049309;28;20294;-63
2023/06/21 10:11:43;;;;;;;7.25;6.65;;;;;;;31.06;35.36;95235.88;5049485;28;20203;-63
2023/06/21 10:14:18;;;;;;;9.75;8.27;;;;;;;31.02;35.80;95229.34;5049346;28;21214;-62
2023/06/21 10:16:48;;;;;;;7.65;6.88;;;;;;;30.84;35.67;95234.03;5049226;28;20284;-64
2023/06/21 10:19:16;;;;;;;7.43;6.93;;;;;;;30.78;36.21;95226.84;5049456;28;20207;-64
2023/06/21 10:21:44;;;;;;;7.88;7.18;;;;;;;30.75;36.87;95228.00;5049678;28;20256;-65
2023/06/21 10:24:14;;;;;;;8.65;8.05;;;;;;;30.62;36.01;95237.41;5048881;28;20742;-64
2023/06/21 10:26:44;;;;;;;8.48;7.40;;;;;;;30.52;37.09;95226.25;5049535;28;20317;-62
2023/06/21 10:29:13;;;;;;;7.72;7.13;;;;;;;30.45;37.16;95231.38;5048819;28;20195;-61
2023/06/21 10:31:44;;;;;;;8.23;7.63;;;;;;;30.38;37.75;95226.00;5049285;28;20203;-62
2023/06/21 10:34:13;;;;;;;8.25;7.65;;;;;;;30.25;37.67;95215.19;5049376;28;20316;-63
2023/06/21 10:36:48;;;;;;;9.13;8.20;;;;;;;30.09;38.44;95223.94;5048788;28;20259;-63
2023/06/21 10:39:16;;;;;;;8.02;7.25;;;;;;;30.09;37.41;95230.97;5049165;28;20704;-63
2023/06/21 10:41:44;;;;;;;8.32;7.53;;;;;;;29.96;37.17;95235.88;5049031;28;20207;-62
2023/06/21 10:44:12;;;;;;;8.70;8.00;;;;;;;29.96;39.34;95231.44;5049126;28;20712;-62
2023/06/21 10:46:41;;;;;;;8.93;8.25;;;;;;;30.02;38.22;95235.25;5049087;28;20286;-63
2023/06/21 10:49:08;;;;;;;7.65;7.05;;;;;;;29.88;38.19;95238.50;5049127;28;20598;-62
2023/06/21 10:51:37;;;;;;;8.43;7.90;;;;;;;29.72;38.22;95237.53;5050670;28;20284;-62
2023/06/21 10:54:06;;;;;;;11.43;8.35;;;;;;;29.59;39.33;95233.78;5052579;28;20207;-62
2023/06/21 10:56:34;;;;;;;8.80;8.27;;;;;;;29.39;39.74;95235.84;5052291;28;20223;-63
2023/06/21 10:59:01;;;;;;;7.78;7.20;;;;;;;29.66;41.16;95226.91;5052483;28;20676;-62
2023/06/21 11:01:28;;;;;;;8.30;7.72;;;;;;;29.88;39.96;95233.28;5052420;28;20203;-63
2023/06/21 11:03:55;;;;;;;8.07;7.53;;;;;;;29.97;39.39;95225.22;5052485;28;20234;-63
2023/06/21 11:06:24;;;;;;;8.50;7.97;;;;;;;29.90;39.98;95226.88;5050956;28;20636;-62
2023/06/21 11:08:50;;;;;;;8.30;7.68;;;;;;;29.83;39.93;95231.16;5052585;28;20209;-63
2023/06/21 11:11:30;;;;;;;8.93;8.15;;;;;;;29.73;40.54;95226.06;5051857;28;20199;-63
2023/06/21 11:13:57;;;;;;;9.30;8.48;;;;;;;29.66;41.28;95224.28;5052182;28;20203;-61
2023/06/21 11:16:26;;;;;;;8.57;7.88;;;;;;;29.64;41.39;95219.22;5052643;28;20277;-61
2023/06/21 11:18:56;;;;;;;9.43;8.75;;;;;;;29.34;41.36;95219.81;5051866;28;20203;-62
2023/06/21 11:21:40;;;;;;;9.27;8.32;;;;;;;29.50;41.67;95216.41;5052372;28;20281;-62
2023/06/21 11:24:09;;;;;;;8.32;7.72;;;;;;;29.66;42.07;95224.28;5050154;28;20199;-63
2023/06/21 11:27:01;;;;;;;9.18;8.48;;;;;;;29.63;41.18;95212.34;5044788;28;20230;-62